Terminal Aerodrome Forecast
Issued by NWS Boston, MA

Home | Current Version | Previous Version | Text Only | Print | Product List | Glossary On
Versions: 1 2 3 4 5 6 7 8 9 10 11 12 13 14 15 16 17 18 19 20 21 22 23 24 25 26 27 28 29 30
000
FTUS41 KBOX 300914 AAD
TAFBOS
TAF AMD
KBOS 300914Z 3009/0112 06015KT P6SM BKN028 BKN035
     FM301000 06014KT P6SM OVC035
     FM301600 06015KT P6SM VCSH OVC130
     FM010000 06014KT P6SM -SHRA OVC015=

USA.gov is the U.S. government's official web portal to all federal, state and local government web resources and services.